Abbott, Texas
Current Conditions -  °F | °C
As of 8:15 PM on Friday 19 Dec 2014 (Local Time) from KINJ Reporting Station
Haze Haze  
Wind Chill: 45°   Ceiling: 2200
Heat Index: 48°   Visibility: 5mi
Dew Point: 46°   Wind: 7mph
Humidity: 92%   Direction: 360°N
Pressure: 30.19"   Gusts: NA
Location:  31.88°N, 97.07°W
Report Text: KINJ 200215Z AUTO 36006KT 5SM BR SCT009 OVC022 09/08 A3019 RMK AO2 T00900077
Loading
Personal Weather Stations






























Interactive Weather Map New forecast layout! Learn more

10-Day Weather Forecast

Advertisements
Track Severe Weather on mobile